Hood, California
Current Conditions -  °F | °C
As of 3:53 PM on Wednesday 28 Jan 2015 (Local Time) from KSAC Reporting Station
Clear Clear  
Wind Chill: 65°   Ceiling: Unl
Heat Index: 65°   Visibility: 10mi
Dew Point: 49°   Wind: 3mph
Humidity: 56%   Direction: 150°SSE
Pressure: 30.16"   Gusts: NA
Location:  38.37°N, 121.52°W
Report Text: KSAC 282353Z 15003KT 10SM CLR 18/09 A3016 RMK AO2 SLP212 T01830094 10200 20122 56014
Loading
Personal Weather Stations






























Interactive Weather Map New forecast layout! Learn more

10-Day Weather Forecast

Advertisements
Track Severe Weather on mobile